createdAt,value
2022-12-09T00:01:38.270Z,25.40
2022-12-09T00:04:06.428Z,27.13
2022-12-09T00:06:34.438Z,20.58
2022-12-09T00:09:04.816Z,19.58
2022-12-09T00:11:32.963Z,22.40
2022-12-09T00:14:01.164Z,23.17
2022-12-09T00:16:30.742Z,26.20
2022-12-09T00:18:59.156Z,23.33
2022-12-09T00:21:28.652Z,22.23
2022-12-09T00:23:58.226Z,20.85
2022-12-09T00:26:28.410Z,23.73
2022-12-09T00:28:57.664Z,20.13
2022-12-09T00:31:28.511Z,22.00
2022-12-09T00:33:58.908Z,26.02
2022-12-09T00:36:27.715Z,23.42
2022-12-09T00:38:57.932Z,19.83
2022-12-09T00:41:28.005Z,21.48
2022-12-09T00:43:57.282Z,21.45
2022-12-09T00:46:25.296Z,21.17
2022-12-09T00:48:53.228Z,22.80
2022-12-09T00:51:23.186Z,19.33
2022-12-09T00:53:56.145Z,23.73
2022-12-09T00:56:25.418Z,23.17
2022-12-09T00:58:55.010Z,21.92
2022-12-09T01:01:23.187Z,23.50
2022-12-09T01:03:51.213Z,20.95
2022-12-09T01:06:20.705Z,24.77
2022-12-09T01:08:48.877Z,20.25
2022-12-09T01:11:19.392Z,22.45
2022-12-09T01:13:47.522Z,18.20
2022-12-09T01:16:18.437Z,20.52
2022-12-09T01:18:46.984Z,19.63
2022-12-09T01:21:15.039Z,18.25
2022-12-09T01:23:43.134Z,19.63
2022-12-09T01:26:11.348Z,24.45
2022-12-09T01:28:40.923Z,25.13
2022-12-09T01:31:10.431Z,18.42
2022-12-09T01:33:42.778Z,23.50
2022-12-09T01:36:13.481Z,20.58
2022-12-09T01:38:42.061Z,20.00
2022-12-09T01:41:10.092Z,21.80
2022-12-09T01:43:38.842Z,23.33
2022-12-09T01:46:07.606Z,20.63
2022-12-09T01:48:40.548Z,15.57
2022-12-09T01:51:13.005Z,16.90
2022-12-09T01:53:45.211Z,25.35
2022-12-09T01:56:21.203Z,18.65
2022-12-09T01:58:50.312Z,20.55
2022-12-09T02:01:19.064Z,20.77
2022-12-09T02:03:51.031Z,23.17
2022-12-09T02:06:19.691Z,19.20
2022-12-09T02:08:50.650Z,22.55
2022-12-09T02:11:29.109Z,21.83
2022-12-09T02:14:04.578Z,23.00
2022-12-09T02:16:40.928Z,18.25
2022-12-09T02:19:22.658Z,17.35
2022-12-09T02:21:57.374Z,15.43
2022-12-09T02:24:31.662Z,16.05
2022-12-09T02:27:07.470Z,20.95
2022-12-09T02:29:59.046Z,19.85
2022-12-09T02:32:50.906Z,22.75
2022-12-09T02:35:24.492Z,22.33
2022-12-09T02:37:59.163Z,21.70
2022-12-09T02:40:35.379Z,25.02
2022-12-09T02:43:06.663Z,24.45
2022-12-09T02:45:37.081Z,22.50
2022-12-09T02:48:06.530Z,19.48
2022-12-09T02:50:40.613Z,23.55
2022-12-09T02:53:13.593Z,16.00
2022-12-09T02:55:44.484Z,16.98
2022-12-09T02:58:13.645Z,24.73
2022-12-09T03:00:42.718Z,23.65
2022-12-09T03:03:16.465Z,18.55
2022-12-09T03:05:52.734Z,17.80
2022-12-09T03:08:32.527Z,22.67
2022-12-09T03:11:03.160Z,21.85
2022-12-09T03:13:41.304Z,24.70
2022-12-09T03:16:17.906Z,30.20
2022-12-09T03:18:49.976Z,24.83
2022-12-09T03:21:23.608Z,23.30
2022-12-09T03:23:54.256Z,21.53
2022-12-09T03:26:26.382Z,26.23
2022-12-09T03:28:56.520Z,16.15
2022-12-09T03:31:27.888Z,19.15
2022-12-09T03:34:00.233Z,17.65
2022-12-09T03:36:35.309Z,15.77
2022-12-09T03:39:08.182Z,21.95
2022-12-09T03:41:39.752Z,17.08
2022-12-09T03:44:13.852Z,22.60
2022-12-09T03:46:41.853Z,14.80
2022-12-09T03:49:10.404Z,14.85
2022-12-09T03:51:46.180Z,22.13
2022-12-09T03:54:20.875Z,16.48
2022-12-09T03:56:53.232Z,20.70
2022-12-09T03:59:23.304Z,15.48
2022-12-09T04:01:52.647Z,16.67
2022-12-09T04:04:21.067Z,18.05
2022-12-09T04:06:53.717Z,13.70
2022-12-09T04:09:21.767Z,20.65
2022-12-09T04:11:49.890Z,23.55
2022-12-09T04:14:17.810Z,19.13
2022-12-09T04:16:46.337Z,20.35
2022-12-09T04:19:14.414Z,17.92
2022-12-09T04:21:42.525Z,25.98
2022-12-09T04:24:11.876Z,18.10
2022-12-09T04:26:40.090Z,20.17
2022-12-09T04:29:08.263Z,14.85
2022-12-09T04:31:36.099Z,17.88
2022-12-09T04:34:09.275Z,19.88
2022-12-09T04:36:38.983Z,16.50
2022-12-09T04:39:07.570Z,16.35
2022-12-09T04:41:37.069Z,15.43
2022-12-09T04:44:05.715Z,19.55
2022-12-09T04:46:34.129Z,23.63
2022-12-09T04:49:02.116Z,25.70
2022-12-09T04:51:37.344Z,21.98
2022-12-09T04:54:06.955Z,17.77
2022-12-09T04:56:36.501Z,20.42
2022-12-09T04:59:05.580Z,20.80
2022-12-09T05:01:33.945Z,20.42
2022-12-09T05:04:02.245Z,22.77
2022-12-09T05:06:30.518Z,18.92
2022-12-09T05:08:58.848Z,22.75
2022-12-09T05:11:26.990Z,20.33
2022-12-09T05:13:56.306Z,21.45
2022-12-09T05:16:24.866Z,16.85
2022-12-09T05:18:53.226Z,25.17
2022-12-09T05:21:22.459Z,23.08
2022-12-09T05:23:50.564Z,26.33
2022-12-09T05:26:20.127Z,22.60
2022-12-09T05:28:48.386Z,19.85
2022-12-09T05:31:20.111Z,22.75
2022-12-09T05:33:48.760Z,18.52
2022-12-09T05:36:20.334Z,24.67
2022-12-09T05:38:49.228Z,22.52
2022-12-09T05:41:17.246Z,22.77
2022-12-09T05:43:45.863Z,20.33
2022-12-09T05:46:15.006Z,18.45
2022-12-09T05:48:45.193Z,17.35
2022-12-09T05:51:16.818Z,21.08
2022-12-09T05:53:45.584Z,19.60
2022-12-09T05:56:17.049Z,21.42
2022-12-09T05:58:45.040Z,23.90
2022-12-09T06:01:13.716Z,21.23
2022-12-09T06:03:41.952Z,20.77
2022-12-09T06:06:13.800Z,15.20
2022-12-09T06:08:43.655Z,24.23
2022-12-09T06:11:14.613Z,16.73
2022-12-09T06:13:43.008Z,18.08
2022-12-09T06:16:11.477Z,17.35
2022-12-09T06:18:39.746Z,16.80
2022-12-09T06:21:09.260Z,22.88
2022-12-09T06:23:41.347Z,23.67
2022-12-09T06:26:15.568Z,19.10
2022-12-09T06:31:11.859Z,19.20
2022-12-09T06:33:57.556Z,18.77
2022-12-09T06:36:27.995Z,20.35
2022-12-09T06:39:01.788Z,24.92
2022-12-09T06:41:33.980Z,25.95
2022-12-09T06:44:02.156Z,19.63
2022-12-09T06:46:30.523Z,25.98
2022-12-09T06:48:58.545Z,30.90
2022-12-09T06:51:27.449Z,22.15
2022-12-09T06:53:57.282Z,19.40
2022-12-09T06:56:25.496Z,24.35
2022-12-09T06:58:53.568Z,23.73
2022-12-09T07:01:24.852Z,24.20
2022-12-09T07:03:55.586Z,23.20
2022-12-09T07:06:28.798Z,18.15
2022-12-09T07:09:00.207Z,27.00
2022-12-09T07:11:29.281Z,25.20
2022-12-09T07:13:57.589Z,15.07
2022-12-09T07:16:26.675Z,20.05
2022-12-09T07:18:55.466Z,26.73
2022-12-09T07:21:25.610Z,25.88
2022-12-09T07:23:54.009Z,15.48
2022-12-09T07:26:23.546Z,19.45
2022-12-09T07:28:51.492Z,22.08
2022-12-09T07:31:21.413Z,19.85
2022-12-09T07:33:49.964Z,26.42
2022-12-09T07:36:21.223Z,18.73
2022-12-09T07:38:49.677Z,29.08
2022-12-09T07:41:19.299Z,30.95
2022-12-09T07:43:49.725Z,27.25
2022-12-09T07:46:20.161Z,31.30
2022-12-09T07:48:49.320Z,25.27
2022-12-09T07:51:18.511Z,20.73
2022-12-09T07:53:47.058Z,23.23
2022-12-09T07:56:16.958Z,23.33
2022-12-09T07:58:47.999Z,22.58
2022-12-09T08:01:19.647Z,23.58
2022-12-09T08:03:48.521Z,23.48
2022-12-09T08:06:19.593Z,21.17
2022-12-09T08:08:48.489Z,16.35
2022-12-09T08:11:18.763Z,14.30
2022-12-09T08:13:46.992Z,18.05
2022-12-09T08:16:18.651Z,21.95
2022-12-09T08:18:47.380Z,25.48
2022-12-09T08:21:17.714Z,16.70
2022-12-09T08:23:46.477Z,21.58
2022-12-09T08:26:15.617Z,21.80
2022-12-09T08:28:44.474Z,24.05
2022-12-09T08:31:14.581Z,23.55
2022-12-09T08:33:44.881Z,16.27
2022-12-09T08:36:14.523Z,18.05
2022-12-09T08:38:43.415Z,24.80
2022-12-09T08:41:13.300Z,26.60
2022-12-09T08:43:42.293Z,27.88
2022-12-09T08:46:11.217Z,20.85
2022-12-09T08:48:40.780Z,19.73
2022-12-09T08:51:12.227Z,20.23
2022-12-09T08:53:40.752Z,30.55
2022-12-09T08:56:10.962Z,21.25
2022-12-09T08:58:38.904Z,22.63
2022-12-09T09:01:07.367Z,25.13
2022-12-09T09:03:35.861Z,23.80
2022-12-09T09:06:10.399Z,20.60
2022-12-09T09:08:41.300Z,23.60
2022-12-09T09:11:13.497Z,28.05
2022-12-09T09:13:43.518Z,23.23
2022-12-09T09:16:13.247Z,25.48
2022-12-09T09:18:41.409Z,30.55
2022-12-09T09:21:11.100Z,24.45
2022-12-09T09:23:41.436Z,21.27
2022-12-09T09:26:12.401Z,23.10
2022-12-09T09:28:41.210Z,22.63
2022-12-09T09:31:11.683Z,22.45
2022-12-09T09:33:39.880Z,23.40
2022-12-09T09:36:11.349Z,29.52
2022-12-09T09:38:41.150Z,16.88
2022-12-09T09:41:21.798Z,33.33
2022-12-09T09:43:50.529Z,29.38
2022-12-09T09:46:24.268Z,30.58
2022-12-09T09:48:53.857Z,27.45
2022-12-09T09:51:22.804Z,27.60
2022-12-09T09:53:53.432Z,25.70
2022-12-09T09:56:28.405Z,22.60
2022-12-09T09:59:06.591Z,27.45
2022-12-09T10:01:37.594Z,31.23
2022-12-09T10:04:19.605Z,22.23
2022-12-09T10:06:53.249Z,28.10
2022-12-09T10:09:26.604Z,26.70
2022-12-09T10:12:02.627Z,27.08
2022-12-09T10:14:44.571Z,29.67
2022-12-09T10:17:24.150Z,28.85
2022-12-09T10:19:56.065Z,27.23
2022-12-09T10:22:28.062Z,26.52
2022-12-09T10:24:59.981Z,24.15
2022-12-09T10:27:32.295Z,25.52
2022-12-09T10:30:03.613Z,36.92
2022-12-09T10:32:33.937Z,24.23
2022-12-09T10:35:03.712Z,29.08
2022-12-09T10:37:34.031Z,27.73
2022-12-09T10:40:16.773Z,26.20
2022-12-09T10:43:04.934Z,26.80
2022-12-09T10:46:00.175Z,29.00
2022-12-09T10:48:33.006Z,29.38
2022-12-09T10:51:07.056Z,30.38
2022-12-09T10:53:36.881Z,26.55
2022-12-09T10:56:07.873Z,26.50
2022-12-09T10:58:38.039Z,25.42
2022-12-09T11:01:10.454Z,27.55
2022-12-09T11:03:43.267Z,27.60
2022-12-09T11:06:23.230Z,25.20
2022-12-09T11:08:54.928Z,24.17
2022-12-09T11:11:41.366Z,24.15
2022-12-09T11:14:23.097Z,29.63
2022-12-09T11:16:58.319Z,22.98
2022-12-09T11:19:31.700Z,27.95
2022-12-09T11:22:38.526Z,23.77
2022-12-09T11:25:20.184Z,28.92
2022-12-09T11:27:53.146Z,27.35
2022-12-09T11:30:24.863Z,26.55
2022-12-09T11:32:57.780Z,26.52
2022-12-09T11:35:31.334Z,24.80
2022-12-09T11:38:03.639Z,26.13
2022-12-09T11:40:33.464Z,28.60
2022-12-09T11:43:03.658Z,27.55
2022-12-09T11:45:34.706Z,24.27
2022-12-09T11:48:27.728Z,30.30
2022-12-09T11:50:55.958Z,26.77
2022-12-09T11:53:28.351Z,26.55
2022-12-09T11:56:04.009Z,22.15
2022-12-09T11:58:42.633Z,35.25
2022-12-09T12:01:15.284Z,28.25
2022-12-09T12:03:48.297Z,26.67
2022-12-09T12:06:22.467Z,38.55
2022-12-09T12:08:54.194Z,29.15
2022-12-09T12:11:28.777Z,25.50
2022-12-09T12:16:39.232Z,27.80
2022-12-09T12:19:15.077Z,28.13
2022-12-09T12:21:57.765Z,25.90
2022-12-09T12:24:55.690Z,29.83
2022-12-09T12:27:41.921Z,25.02
2022-12-09T12:30:14.002Z,25.77
2022-12-09T12:33:40.849Z,27.17
2022-12-09T12:35:56.267Z,25.95
2022-12-09T12:38:37.027Z,23.85
2022-12-09T12:41:12.858Z,24.70
2022-12-09T12:44:15.534Z,27.17
2022-12-09T12:46:57.385Z,24.98
2022-12-09T12:49:41.461Z,42.97
2022-12-09T12:52:53.809Z,29.00
2022-12-09T12:55:20.096Z,32.17
2022-12-09T12:57:58.792Z,30.10
2022-12-09T13:00:34.055Z,27.25
2022-12-09T13:03:23.095Z,29.92
2022-12-09T13:05:53.759Z,24.45
2022-12-09T13:08:29.194Z,29.60
2022-12-09T13:11:00.661Z,28.08
2022-12-09T13:13:34.322Z,28.92
2022-12-09T13:16:10.505Z,23.87
2022-12-09T13:18:40.876Z,27.20
2022-12-09T13:21:10.688Z,28.50
2022-12-09T13:23:58.372Z,29.17
2022-12-09T13:26:38.495Z,27.02
2022-12-09T13:29:14.164Z,27.38
2022-12-09T13:31:51.988Z,30.30
2022-12-09T13:34:29.044Z,30.33
2022-12-09T13:36:56.864Z,30.13
2022-12-09T13:39:56.569Z,26.77
2022-12-09T13:42:53.235Z,23.95
2022-12-09T13:45:27.873Z,26.00
2022-12-09T13:47:56.717Z,28.83
2022-12-09T13:50:31.260Z,26.05
2022-12-09T13:53:01.098Z,30.08
2022-12-09T13:55:37.549Z,25.25
2022-12-09T13:58:47.760Z,31.35
2022-12-09T14:01:23.297Z,27.65
2022-12-09T14:04:01.885Z,33.88
2022-12-09T14:06:36.760Z,35.67
2022-12-09T14:09:18.479Z,28.55
2022-12-09T14:11:49.118Z,24.77
2022-12-09T14:14:53.550Z,27.80
2022-12-09T14:18:00.898Z,28.25
2022-12-09T14:20:34.698Z,27.63
2022-12-09T14:23:19.358Z,35.40
2022-12-09T14:26:04.550Z,28.65
2022-12-09T14:28:55.032Z,25.15
2022-12-09T14:31:50.254Z,28.25
2022-12-09T14:36:55.241Z,27.83
2022-12-09T14:39:30.474Z,27.10
2022-12-09T14:42:02.469Z,32.15
2022-12-09T14:44:37.470Z,27.15
2022-12-09T14:47:18.091Z,32.13
2022-12-09T14:49:49.391Z,31.80
2022-12-09T14:52:24.024Z,30.35
2022-12-09T14:54:54.797Z,28.50
2022-12-09T14:57:25.495Z,26.35
2022-12-09T14:59:56.407Z,32.38
2022-12-09T15:02:26.196Z,31.23
2022-12-09T15:04:55.252Z,32.05
2022-12-09T15:07:25.869Z,36.47
2022-12-09T15:09:58.043Z,30.35
2022-12-09T15:12:30.960Z,27.92
2022-12-09T15:15:04.304Z,27.65
2022-12-09T15:17:37.150Z,27.60
2022-12-09T15:20:07.721Z,34.30
2022-12-09T15:22:35.591Z,29.65
2022-12-09T15:25:05.308Z,39.55
2022-12-09T15:27:33.248Z,32.15
2022-12-09T15:30:01.374Z,32.22
2022-12-09T15:32:31.345Z,31.02
2022-12-09T15:35:17.383Z,39.58
2022-12-09T15:37:46.038Z,33.03
2022-12-09T15:40:20.015Z,31.13
2022-12-09T15:42:53.216Z,37.28
2022-12-09T15:45:23.762Z,32.85
2022-12-09T15:47:55.887Z,31.05
2022-12-09T15:50:27.788Z,31.73
2022-12-09T15:52:58.176Z,33.13
2022-12-09T15:55:32.244Z,29.38
2022-12-09T15:58:03.436Z,28.23
2022-12-09T16:00:31.313Z,26.77
2022-12-09T16:02:59.577Z,27.65
2022-12-09T16:05:27.451Z,33.08
2022-12-09T16:07:57.835Z,33.63
2022-12-09T16:10:28.258Z,34.72
2022-12-09T16:13:07.620Z,32.47
2022-12-09T16:15:45.032Z,38.05
2022-12-09T16:18:18.332Z,35.28
2022-12-09T16:20:58.873Z,34.80
2022-12-09T16:23:28.395Z,31.67
2022-12-09T16:26:06.743Z,33.17
2022-12-09T16:28:35.798Z,29.33
2022-12-09T16:31:17.757Z,30.88
2022-12-09T16:33:49.202Z,22.98
2022-12-09T16:36:20.736Z,33.92
2022-12-09T16:39:27.839Z,34.08
2022-12-09T16:42:01.636Z,26.42
2022-12-09T16:44:32.276Z,37.67
2022-12-09T16:47:10.340Z,32.85
2022-12-09T16:49:38.564Z,35.20
2022-12-09T16:52:06.542Z,34.33
2022-12-09T16:54:34.609Z,33.92
2022-12-09T16:57:03.683Z,36.25
2022-12-09T16:59:37.547Z,39.22
2022-12-09T17:02:15.937Z,33.97
2022-12-09T17:04:43.872Z,35.45
2022-12-09T17:07:11.881Z,36.25
2022-12-09T17:09:39.738Z,41.90
2022-12-09T17:12:09.173Z,47.13
2022-12-09T17:14:36.965Z,40.47
2022-12-09T17:17:04.942Z,43.58
2022-12-09T17:19:33.666Z,43.22
2022-12-09T17:22:01.455Z,36.53
2022-12-09T17:24:31.247Z,36.35
2022-12-09T17:26:59.013Z,41.95
2022-12-09T17:29:28.192Z,42.60
2022-12-09T17:31:56.700Z,36.42
2022-12-09T17:34:24.589Z,69.50
2022-12-09T17:36:52.416Z,48.40
2022-12-09T17:39:20.308Z,48.03
2022-12-09T17:41:50.019Z,43.10
2022-12-09T17:44:17.854Z,42.58
2022-12-09T17:46:46.947Z,37.33
2022-12-09T17:49:14.916Z,41.72
2022-12-09T17:51:42.727Z,37.53
2022-12-09T17:54:10.507Z,41.42
2022-12-09T17:56:38.413Z,41.67
2022-12-09T17:59:08.373Z,38.53
2022-12-09T18:01:37.445Z,44.08
2022-12-09T18:04:10.120Z,30.42
2022-12-09T18:06:39.563Z,43.88
2022-12-09T18:09:10.501Z,45.00
2022-12-09T18:11:39.486Z,39.00
2022-12-09T18:14:08.033Z,50.70
2022-12-09T18:16:35.916Z,44.20
2022-12-09T18:19:06.555Z,39.38
2022-12-09T18:21:35.096Z,42.55
2022-12-09T18:24:02.978Z,36.95
2022-12-09T18:26:35.264Z,43.58
2022-12-09T18:29:06.124Z,44.10
2022-12-09T18:31:34.256Z,42.20
2022-12-09T18:34:01.946Z,40.90
2022-12-09T18:36:31.015Z,43.70
2022-12-09T18:38:59.669Z,43.53
2022-12-09T18:41:29.605Z,42.17
2022-12-09T18:43:58.944Z,53.90
2022-12-09T18:46:28.776Z,54.40
2022-12-09T18:48:58.130Z,58.05
2022-12-09T18:51:34.432Z,54.60
2022-12-09T18:54:07.380Z,53.17
2022-12-09T18:56:36.647Z,47.72
2022-12-09T18:59:06.890Z,43.83
2022-12-09T19:01:39.058Z,37.92
2022-12-09T19:04:08.969Z,35.38
2022-12-09T19:06:38.728Z,42.65
2022-12-09T19:09:09.537Z,38.35
2022-12-09T19:11:39.352Z,42.03
2022-12-09T19:14:09.384Z,43.80
2022-12-09T19:16:38.314Z,40.40
2022-12-09T19:19:10.032Z,43.38
2022-12-09T19:21:38.742Z,40.78
2022-12-09T19:24:14.632Z,40.30
2022-12-09T19:26:43.724Z,39.25
2022-12-09T19:29:13.299Z,37.10
2022-12-09T19:31:44.150Z,37.25
2022-12-09T19:34:14.963Z,38.42
2022-12-09T19:36:46.357Z,39.83
2022-12-09T19:39:18.048Z,38.35
2022-12-09T19:41:46.918Z,37.13
2022-12-09T19:44:31.069Z,42.38
2022-12-09T19:47:05.174Z,39.47
2022-12-09T19:49:32.974Z,36.42
2022-12-09T19:52:00.738Z,36.15
2022-12-09T19:54:29.963Z,39.58
2022-12-09T19:56:58.402Z,35.63
2022-12-09T19:59:27.465Z,38.28
2022-12-09T20:01:55.904Z,35.60
2022-12-09T20:07:16.757Z,39.60
2022-12-09T20:09:45.868Z,35.70
2022-12-09T20:12:13.640Z,31.13
2022-12-09T20:14:42.036Z,41.60
2022-12-09T20:17:09.869Z,38.30
2022-12-09T20:19:37.642Z,35.67
2022-12-09T20:22:05.443Z,37.45
2022-12-09T20:24:33.245Z,36.60
2022-12-09T20:27:02.388Z,34.60
2022-12-09T20:29:36.972Z,42.15
2022-12-09T20:32:05.598Z,35.03
2022-12-09T20:34:33.391Z,33.13
2022-12-09T20:37:01.280Z,33.13
2022-12-09T20:39:29.014Z,43.05
2022-12-09T20:42:01.535Z,40.30
2022-12-09T20:44:32.274Z,37.65
2022-12-09T20:47:00.035Z,41.45
2022-12-09T20:49:27.864Z,41.00
2022-12-09T20:51:58.289Z,39.90
2022-12-09T20:54:26.162Z,37.08
2022-12-09T20:56:54.581Z,39.25
2022-12-09T20:59:22.371Z,41.25
2022-12-09T21:01:51.494Z,39.53
2022-12-09T21:04:19.283Z,39.20
2022-12-09T21:06:47.525Z,36.72
2022-12-09T21:09:19.957Z,38.88
2022-12-09T21:11:48.416Z,40.15
2022-12-09T21:14:18.203Z,35.17
2022-12-09T21:16:50.158Z,37.22
2022-12-09T21:19:24.357Z,40.25
2022-12-09T21:21:52.706Z,33.67
2022-12-09T21:24:21.802Z,34.17
2022-12-09T21:26:53.002Z,31.55
2022-12-09T21:29:22.306Z,32.78
2022-12-09T21:31:54.261Z,37.08
2022-12-09T21:34:25.201Z,31.33
2022-12-09T21:36:52.963Z,41.25
2022-12-09T21:39:20.999Z,41.17
2022-12-09T21:41:48.733Z,42.70
2022-12-09T21:44:18.695Z,36.95
2022-12-09T21:46:46.791Z,40.42
2022-12-09T21:49:15.151Z,36.53
2022-12-09T21:51:44.508Z,38.67
2022-12-09T21:54:12.348Z,44.50
2022-12-09T21:56:40.104Z,37.58
2022-12-09T21:59:08.661Z,37.55
2022-12-09T22:01:38.810Z,34.80
2022-12-09T22:04:09.119Z,31.17
2022-12-09T22:06:37.467Z,38.28
2022-12-09T22:09:08.206Z,37.85
2022-12-09T22:11:37.914Z,46.53
2022-12-09T22:14:07.623Z,39.53
2022-12-09T22:16:37.342Z,33.42
2022-12-09T22:19:08.102Z,35.13
2022-12-09T22:21:36.897Z,39.90
2022-12-09T22:24:09.312Z,29.80
2022-12-09T22:26:37.101Z,37.08
2022-12-09T22:29:06.850Z,42.47
2022-12-09T22:31:37.359Z,34.70
2022-12-09T22:34:07.903Z,34.95
2022-12-09T22:36:37.063Z,37.60
2022-12-09T22:39:07.719Z,36.72
2022-12-09T22:41:35.991Z,38.83
2022-12-09T22:44:04.921Z,35.08
2022-12-09T22:46:34.809Z,31.58
2022-12-09T22:49:04.595Z,38.65
2022-12-09T22:51:34.881Z,38.40
2022-12-09T22:54:04.962Z,35.40
2022-12-09T22:56:34.187Z,43.08
2022-12-09T22:59:02.076Z,38.30
2022-12-09T23:01:32.640Z,37.83
2022-12-09T23:04:01.364Z,42.72
2022-12-09T23:06:30.813Z,39.05
2022-12-09T23:08:59.019Z,42.85
2022-12-09T23:11:29.170Z,43.13
2022-12-09T23:13:59.556Z,37.72
2022-12-09T23:16:28.124Z,42.35
2022-12-09T23:18:57.659Z,33.95
2022-12-09T23:21:27.319Z,34.92
2022-12-09T23:23:56.824Z,39.22
2022-12-09T23:26:26.665Z,40.40
2022-12-09T23:28:57.109Z,33.60
2022-12-09T23:31:29.169Z,42.50
2022-12-09T23:37:32.176Z,32.55
2022-12-09T23:39:59.856Z,31.65
2022-12-09T23:42:27.615Z,33.00
2022-12-09T23:44:55.366Z,34.67
2022-12-09T23:47:24.449Z,33.80
2022-12-09T23:49:52.279Z,36.15
2022-12-09T23:52:19.941Z,34.95
2022-12-09T23:54:47.701Z,36.08
2022-12-09T23:57:15.471Z,36.45
2022-12-09T23:59:43.219Z,41.13
